Flight Track Log - Related Links

Times and Time Zones

All times are in EDT time to prevent confusion due to time zone crossing. See the SKW5191 flight status page for this flight to view local times or setup timezone preferences in your user account.

Time Position Orientation Groundspeed Altitude Reporting Facility
EDT Latitude Longitude Course Direction KTS MPH feet Rate Location/Type
Wed 06:36:54 AM 32.9167 -97.0333 148° Southeast 141 162 2,400  Level Dallas / Fort Worth TRACON
Wed 06:37:54 AM 32.9667 -97.0167 16° North 199 229 4,900 2,500 Climbing Dallas / Fort Worth TRACON
Wed 06:39:00 AM 32.6339 -96.8798 157° South  Level Estimated
Wed 06:40:00 AM 32.5382 -96.9062 193° South  Level FlightAware Approximate
Wed 06:40:18 AM 32.9867 -96.8439 82° East 239 275 10,900  Level Fort Worth Center
Wed 06:41:00 AM 32.4515 -96.8514 159° South  Level Estimated
Wed 06:41:18 AM 32.9153 -96.7947 150° Southeast 251 289 14,400  Level Fort Worth Center
Wed 06:42:00 AM 32.3648 -96.7968 148° Southeast  Level Estimated
Wed 06:42:18 AM 32.8339 -96.7928 179° South 262 302 17,100  Level Fort Worth Center
Wed 06:43:18 AM 32.7442 -96.7983 183° South 307 353 19,500 2,250 Climbing Fort Worth Center
Wed 06:44:18 AM 32.6567 -96.8014 182° South 324 373 21,600 2,100 Climbing Fort Worth Center
Wed 06:45:18 AM 32.5606 -96.8022 180° South 339 390 23,700 1,700 Climbing Fort Worth Center
Wed 06:46:18 AM 32.4583 -96.8078 183° South 363 418 25,000 650 Climbing Fort Worth Center
Wed 06:47:18 AM 32.3475 -96.8133 182° South 388 447 25,000  Level Fort Worth Center
Wed 06:48:18 AM 32.2472 -96.8017 174° South 395 455 25,000  Level Fort Worth Center
Wed 06:49:18 AM 32.1386 -96.7608 162° South 412 474 25,000  Level Fort Worth Center
Wed 06:50:18 AM 32.0361 -96.7222 162° South 412 474 25,000  Level Fort Worth Center
Wed 06:51:18 AM 31.9253 -96.6792 162° South 392 451 25,000  Level Fort Worth Center
Wed 06:52:18 AM 31.8228 -96.6383 161° South 382 440 25,000  Level Fort Worth Center
Wed 06:53:18 AM 31.7200 -96.5953 160° South 387 445 25,000  Level Fort Worth Center
Wed 06:55:06 AM 31.5506 -96.5269 161° South 386 444 25,000  Level Houston Center
Wed 06:56:07 AM 31.4492 -96.4875 162° South 380 437 25,000  Level Houston Center
Wed 06:57:07 AM 31.3486 -96.4486 162° South 377 434 25,000  Level Houston Center
Wed 06:58:08 AM 31.2447 -96.4122 163° South 381 438 25,000  Level Houston Center
Wed 06:59:08 AM 31.1425 -96.3733 162° South 381 438 25,000  Level Houston Center
Wed 07:00:08 AM 31.0389 -96.3344 162° South 382 440 25,000 -50 Level Houston Center
Wed 07:01:09 AM 30.9378 -96.2975 163° South 376 433 24,900 -1,240 Descending Houston Center
Wed 07:02:09 AM 30.8364 -96.2589 162° South 377 434 22,500 -2,450 Descending Houston Center
Wed 07:03:09 AM 30.7439 -96.1692 140° Southeast 420 483 20,000 -2,331 Descending Houston Center
Wed 07:04:10 AM 30.6631 -96.0831 137° Southeast 407 468 17,800 -2,400 Descending Houston Center
Wed 07:04:34 AM 30.6219 -96.0422 139° Southeast 402 463 16,600 -2,262 Descending Houston Center
Wed 07:05:11 AM 30.5828 -96.0033 139° Southeast 395 455 15,500 -2,509 Descending Houston Center
Wed 07:05:29 AM 30.5431 -95.9811 154° Southeast 374 430 14,300 -2,800 Descending Houston Center
Wed 07:06:11 AM 30.4983 -95.9389 141° Southeast 370 426 12,700 -3,273 Descending Houston Center
Wed 07:06:35 AM 30.4656 -95.8858 126° Southeast 363 418 10,700 -2,656 Descending Houston Center
Wed 07:07:12 AM 30.4383 -95.8467 129° Southeast 357 411 10,000 -433 Descending Houston Center
Wed 07:08:12 AM 30.3692 -95.7769 139° Southeast 332 382 10,000 -298 Level Houston Center
Wed 07:09:13 AM 30.3006 -95.7039 137° Southeast 335 386 9,400 -738 Descending Houston Center
Wed 07:10:14 AM 30.2361 -95.6364 138° Southeast 318 366 8,500 -893 Descending Houston Center
Wed 07:11:14 AM 30.1767 -95.5744 138° Southeast 295 339 7,600 -750 Descending Houston Center
Wed 07:12:14 AM 30.1169 -95.5119 138° Southeast 290 334 7,000 -298 Descending Houston Center
Wed 07:13:15 AM 30.1075 -95.4183 97° East 298 343 7,000 -344 Level Houston Center
Wed 07:14:16 AM 30.1058 -95.3217 91° East 299 344 6,300 -843 Descending Houston Center
Wed 07:15:16 AM 30.1067 -95.2144 89° East 281 323 5,300 -1,190 Descending Houston Center
Wed 07:16:17 AM 30.1064 -95.1353 90° East 254 292 3,900 -1,180 Descending Houston Center
Wed 07:17:18 AM 30.0731 -95.0858 128° Southeast 238 274 2,900 -541 Descending Houston Center
Wed 07:18:19 AM 30.0169 -95.0803 175° South 208 239 2,800 -295 Descending Houston Center
Wed 07:19:20 AM 29.9942 -95.1356 245° Southwest 202 232 2,300 -375 Descending Houston Center
Wed 07:19:39 AM 29.9931 -95.1589 267° West 183 211 2,300  Level Houston Center

Login

Don't have an account? Register now (free) for customized features, flight alerts, and more!